createdAt,value
2022-10-18T00:00:53.859Z,13.60
2022-10-18T00:01:53.819Z,10.30
2022-10-18T00:02:54.019Z,14.70
2022-10-18T00:03:53.748Z,12.60
2022-10-18T00:04:53.749Z,13.40
2022-10-18T00:05:53.980Z,13.60
2022-10-18T00:06:53.789Z,23.40
2022-10-18T00:07:53.790Z,13.70
2022-10-18T00:08:53.820Z,15.60
2022-10-18T00:09:53.840Z,14.40
2022-10-18T00:10:53.799Z,14.90
2022-10-18T00:11:53.770Z,12.10
2022-10-18T00:12:53.963Z,16.30
2022-10-18T00:13:53.802Z,15.10
2022-10-18T00:14:54.457Z,14.90
2022-10-18T00:15:55.178Z,13.50
2022-10-18T00:16:53.799Z,13.30
2022-10-18T00:17:53.882Z,11.70
2022-10-18T00:18:54.504Z,13.80
2022-10-18T00:19:53.782Z,12.90
2022-10-18T00:20:55.299Z,16.30
2022-10-18T00:21:54.072Z,12.50
2022-10-18T00:22:54.214Z,14.70
2022-10-18T00:23:53.705Z,12.80
2022-10-18T00:24:53.591Z,15.10
2022-10-18T00:25:53.512Z,10.80
2022-10-18T00:26:53.796Z,17.00
2022-10-18T00:27:53.563Z,9.40
2022-10-18T00:28:53.662Z,14.90
2022-10-18T00:29:53.784Z,17.00
2022-10-18T00:30:54.189Z,14.10
2022-10-18T00:31:54.468Z,18.00
2022-10-18T00:32:53.475Z,12.60
2022-10-18T00:33:53.672Z,13.40
2022-10-18T00:34:53.651Z,10.70
2022-10-18T00:35:53.666Z,15.10
2022-10-18T00:36:53.865Z,18.20
2022-10-18T00:37:53.865Z,12.60
2022-10-18T00:38:54.817Z,11.70
2022-10-18T00:39:55.032Z,12.80
2022-10-18T00:40:54.496Z,12.00
2022-10-18T00:41:54.589Z,13.20
2022-10-18T00:42:54.045Z,14.80
2022-10-18T00:43:54.428Z,13.30
2022-10-18T00:44:54.112Z,14.10
2022-10-18T00:45:53.745Z,16.50
2022-10-18T00:46:54.366Z,11.20
2022-10-18T00:47:53.817Z,11.50
2022-10-18T00:49:54.319Z,17.80
2022-10-18T00:50:54.316Z,11.40
2022-10-18T00:51:54.603Z,12.30
2022-10-18T00:52:54.067Z,10.20
2022-10-18T00:53:54.060Z,13.60
2022-10-18T00:54:55.005Z,11.70
2022-10-18T00:55:54.860Z,12.10
2022-10-18T00:56:54.329Z,11.30
2022-10-18T00:58:55.001Z,13.50
2022-10-18T00:59:53.849Z,12.60
2022-10-18T01:00:53.785Z,15.90
2022-10-18T01:01:53.202Z,12.70
2022-10-18T01:02:53.158Z,12.60
2022-10-18T01:03:53.171Z,14.20
2022-10-18T01:04:53.310Z,12.80
2022-10-18T01:05:53.297Z,14.60
2022-10-18T01:06:53.314Z,12.60
2022-10-18T01:07:53.511Z,11.40
2022-10-18T01:08:53.193Z,13.90
2022-10-18T01:09:53.829Z,11.70
2022-10-18T01:10:53.391Z,15.90
2022-10-18T01:11:53.659Z,17.20
2022-10-18T01:12:53.431Z,12.00
2022-10-18T01:13:54.359Z,12.00
2022-10-18T01:14:53.847Z,14.50
2022-10-18T01:15:53.257Z,11.10
2022-10-18T01:16:53.004Z,15.50
2022-10-18T01:17:53.024Z,17.20
2022-10-18T01:18:53.079Z,12.50
2022-10-18T01:19:52.955Z,14.70
2022-10-18T01:20:52.951Z,13.80
2022-10-18T01:21:53.399Z,11.80
2022-10-18T01:22:53.352Z,16.60
2022-10-18T01:23:53.152Z,14.10
2022-10-18T01:24:53.008Z,13.80
2022-10-18T01:25:52.984Z,11.70
2022-10-18T01:26:53.000Z,18.20
2022-10-18T01:27:53.003Z,13.60
2022-10-18T01:28:53.265Z,12.20
2022-10-18T01:29:54.205Z,13.90
2022-10-18T01:30:54.135Z,13.40
2022-10-18T01:31:56.391Z,14.50
2022-10-18T01:32:53.976Z,11.80
2022-10-18T01:33:53.469Z,17.50
2022-10-18T01:34:53.826Z,17.00
2022-10-18T01:35:53.416Z,16.70
2022-10-18T01:36:54.006Z,10.90
2022-10-18T01:37:53.920Z,13.70
2022-10-18T01:38:54.549Z,14.20
2022-10-18T01:39:53.337Z,16.20
2022-10-18T01:40:53.288Z,18.10
2022-10-18T01:41:52.916Z,13.30
2022-10-18T01:42:52.920Z,13.50
2022-10-18T01:43:52.799Z,16.10
2022-10-18T01:44:53.566Z,15.70
2022-10-18T01:45:53.273Z,16.30
2022-10-18T01:46:52.820Z,14.50
2022-10-18T01:47:52.659Z,14.50
2022-10-18T01:48:52.670Z,15.30
2022-10-18T01:49:52.758Z,14.60
2022-10-18T01:50:52.648Z,11.10
2022-10-18T01:51:53.038Z,13.70
2022-10-18T01:52:52.786Z,14.20
2022-10-18T01:53:53.306Z,12.50
2022-10-18T01:54:53.446Z,13.70
2022-10-18T01:55:52.528Z,12.20
2022-10-18T01:56:52.699Z,16.60
2022-10-18T01:57:52.852Z,13.40
2022-10-18T01:58:52.659Z,13.10
2022-10-18T01:59:52.826Z,13.80
2022-10-18T02:00:53.322Z,14.30
2022-10-18T02:01:52.552Z,14.40
2022-10-18T02:02:52.520Z,13.10
2022-10-18T02:03:52.876Z,15.60
2022-10-18T02:04:53.193Z,21.90
2022-10-18T02:05:52.739Z,13.10
2022-10-18T02:06:52.420Z,15.90
2022-10-18T02:08:00.405Z,11.70
2022-10-18T02:08:53.380Z,18.60
2022-10-18T02:09:52.370Z,16.60
2022-10-18T02:10:52.362Z,16.40
2022-10-18T02:11:52.363Z,11.90
2022-10-18T02:12:52.333Z,11.30
2022-10-18T02:13:52.321Z,13.90
2022-10-18T02:14:52.311Z,14.50
2022-10-18T02:15:52.325Z,12.70
2022-10-18T02:16:52.291Z,16.80
2022-10-18T02:17:52.274Z,23.00
2022-10-18T02:18:52.294Z,15.40
2022-10-18T02:19:52.255Z,16.20
2022-10-18T02:20:52.245Z,12.50
2022-10-18T02:21:52.233Z,13.70
2022-10-18T02:22:52.252Z,15.70
2022-10-18T02:23:52.213Z,13.60
2022-10-18T02:24:52.203Z,14.40
2022-10-18T02:25:52.185Z,13.90
2022-10-18T02:26:52.185Z,14.50
2022-10-18T02:27:52.163Z,11.60
2022-10-18T02:28:52.186Z,12.30
2022-10-18T02:29:52.144Z,11.80
2022-10-18T02:30:52.135Z,16.00
2022-10-18T02:31:52.126Z,20.60
2022-10-18T02:32:52.274Z,12.50
2022-10-18T02:33:52.126Z,13.10
2022-10-18T02:34:52.097Z,14.00
2022-10-18T02:35:52.083Z,13.60
2022-10-18T02:36:52.166Z,13.60
2022-10-18T02:37:52.265Z,11.10
2022-10-18T02:38:52.066Z,13.10
2022-10-18T02:39:52.203Z,13.60
2022-10-18T02:40:52.026Z,13.80
2022-10-18T02:41:52.174Z,14.10
2022-10-18T02:42:52.106Z,12.90
2022-10-18T02:43:52.011Z,13.00
2022-10-18T02:44:52.137Z,14.30
2022-10-18T02:45:51.966Z,16.30
2022-10-18T02:46:52.141Z,21.10
2022-10-18T02:47:51.949Z,12.10
2022-10-18T02:48:51.959Z,14.30
2022-10-18T02:49:51.927Z,13.00
2022-10-18T02:50:51.917Z,12.30
2022-10-18T02:51:51.908Z,12.40
2022-10-18T02:52:51.898Z,13.60
2022-10-18T02:53:51.879Z,13.60
2022-10-18T02:54:51.896Z,10.90
2022-10-18T02:55:51.859Z,16.20
2022-10-18T02:56:51.849Z,19.50
2022-10-18T02:57:51.842Z,19.30
2022-10-18T02:58:51.849Z,13.80
2022-10-18T02:59:51.840Z,11.10
2022-10-18T03:00:51.811Z,12.30
2022-10-18T03:01:51.824Z,12.70
2022-10-18T03:02:51.788Z,14.90
2022-10-18T03:03:51.771Z,12.20
2022-10-18T03:04:51.782Z,17.90
2022-10-18T03:05:51.750Z,11.00
2022-10-18T03:06:51.742Z,13.80
2022-10-18T03:07:51.731Z,19.70
2022-10-18T03:08:51.721Z,14.70
2022-10-18T03:09:51.731Z,13.60
2022-10-18T03:10:51.731Z,13.80
2022-10-18T03:11:51.693Z,11.50
2022-10-18T03:12:51.672Z,13.70
2022-10-18T03:13:51.667Z,10.30
2022-10-18T03:14:51.650Z,11.20
2022-10-18T03:15:51.642Z,12.10
2022-10-18T03:16:51.653Z,13.90
2022-10-18T03:17:51.622Z,15.60
2022-10-18T03:18:51.633Z,10.20
2022-10-18T03:19:51.600Z,13.00
2022-10-18T03:20:51.583Z,15.40
2022-10-18T03:21:51.604Z,12.90
2022-10-18T03:22:51.563Z,12.40
2022-10-18T03:23:51.554Z,12.60
2022-10-18T03:24:51.541Z,11.20
2022-10-18T03:25:51.533Z,13.70
2022-10-18T03:26:51.543Z,12.10
2022-10-18T03:27:51.512Z,9.80
2022-10-18T03:28:51.510Z,11.50
2022-10-18T03:29:51.487Z,11.40
2022-10-18T03:30:51.476Z,14.20
2022-10-18T03:31:51.465Z,11.10
2022-10-18T03:32:51.476Z,11.50
2022-10-18T03:33:51.445Z,12.60
2022-10-18T03:34:51.443Z,13.90
2022-10-18T03:35:51.450Z,11.90
2022-10-18T03:36:51.409Z,14.10
2022-10-18T03:37:51.398Z,10.40
2022-10-18T03:38:51.406Z,12.60
2022-10-18T03:39:51.378Z,12.10
2022-10-18T03:40:51.372Z,11.70
2022-10-18T03:41:51.377Z,12.20
2022-10-18T03:42:51.346Z,14.20
2022-10-18T03:43:51.340Z,11.20
2022-10-18T03:44:51.318Z,10.00
2022-10-18T03:45:51.317Z,14.00
2022-10-18T03:46:51.329Z,10.60
2022-10-18T03:47:51.290Z,11.40
2022-10-18T03:48:51.278Z,11.20
2022-10-18T03:49:54.599Z,11.10
2022-10-18T03:50:52.259Z,8.80
2022-10-18T03:51:51.269Z,10.70
2022-10-18T03:52:51.230Z,11.00
2022-10-18T03:53:51.227Z,10.90
2022-10-18T03:54:51.210Z,19.00
2022-10-18T03:55:51.201Z,10.30
2022-10-18T03:56:51.212Z,11.40
2022-10-18T03:57:51.181Z,10.30
2022-10-18T03:58:51.170Z,10.50
2022-10-18T03:59:51.162Z,10.10
2022-10-18T04:00:51.150Z,12.30
2022-10-18T04:01:51.205Z,11.90
2022-10-18T04:02:53.492Z,11.60
2022-10-18T04:03:51.111Z,13.50
2022-10-18T04:04:51.102Z,12.20
2022-10-18T04:05:51.092Z,13.40
2022-10-18T04:06:51.091Z,16.40
2022-10-18T04:07:51.094Z,13.40
2022-10-18T04:08:51.059Z,12.90
2022-10-18T04:09:51.051Z,12.30
2022-10-18T04:10:51.033Z,11.20
2022-10-18T04:11:51.024Z,13.80
2022-10-18T04:12:51.050Z,13.90
2022-10-18T04:13:51.011Z,15.70
2022-10-18T04:14:50.992Z,11.40
2022-10-18T04:15:50.994Z,13.70
2022-10-18T04:16:50.968Z,12.30
2022-10-18T04:17:50.965Z,14.30
2022-10-18T04:18:50.973Z,13.80
2022-10-18T04:19:50.964Z,18.10
2022-10-18T04:20:50.925Z,13.20
2022-10-18T04:21:50.915Z,12.70
2022-10-18T04:22:50.903Z,12.20
2022-10-18T04:23:50.924Z,17.40
2022-10-18T04:24:50.885Z,15.70
2022-10-18T04:25:50.882Z,13.20
2022-10-18T04:26:50.870Z,11.00
2022-10-18T04:27:50.855Z,14.00
2022-10-18T04:28:50.901Z,14.50
2022-10-18T04:29:50.830Z,10.80
2022-10-18T04:30:50.818Z,8.90
2022-10-18T04:31:50.805Z,12.10
2022-10-18T04:32:50.798Z,14.30
2022-10-18T04:33:50.807Z,11.30
2022-10-18T04:34:50.776Z,11.70
2022-10-18T04:35:50.769Z,13.80
2022-10-18T04:36:50.750Z,14.10
2022-10-18T04:37:50.748Z,11.70
2022-10-18T04:38:50.728Z,12.20
2022-10-18T04:39:53.515Z,14.30
2022-10-18T04:40:50.707Z,10.80
2022-10-18T04:41:50.696Z,14.20
2022-10-18T04:42:50.687Z,12.70
2022-10-18T04:43:50.680Z,12.00
2022-10-18T04:44:50.686Z,13.80
2022-10-18T04:45:50.678Z,12.90
2022-10-18T04:46:50.640Z,12.30
2022-10-18T04:47:50.629Z,12.40
2022-10-18T04:48:50.619Z,12.20
2022-10-18T04:49:50.628Z,10.70
2022-10-18T04:50:50.599Z,14.90
2022-10-18T04:51:50.589Z,13.30
2022-10-18T04:53:50.560Z,13.00
2022-10-18T04:54:50.579Z,12.90
2022-10-18T04:55:50.550Z,13.10
2022-10-18T04:56:50.540Z,11.40
2022-10-18T04:57:50.520Z,13.60
2022-10-18T04:58:50.512Z,11.90
2022-10-18T04:59:57.573Z,13.90
2022-10-18T05:00:50.484Z,12.80
2022-10-18T05:01:50.541Z,11.20
2022-10-18T05:02:50.475Z,10.40
2022-10-18T05:03:50.457Z,11.60
2022-10-18T05:04:50.475Z,14.80
2022-10-18T05:06:01.344Z,12.70
2022-10-18T05:06:51.424Z,14.60
2022-10-18T05:07:50.412Z,9.60
2022-10-18T05:08:50.404Z,13.60
2022-10-18T05:09:50.415Z,14.70
2022-10-18T05:10:50.385Z,15.30
2022-10-18T05:11:50.367Z,13.20
2022-10-18T05:12:50.358Z,12.60
2022-10-18T05:13:51.015Z,10.60
2022-10-18T05:14:50.362Z,14.30
2022-10-18T05:15:50.331Z,18.10
2022-10-18T05:16:50.325Z,13.00
2022-10-18T05:17:50.305Z,14.10
2022-10-18T05:18:50.295Z,12.60
2022-10-18T05:19:50.307Z,10.40
2022-10-18T05:20:50.268Z,10.30
2022-10-18T05:21:50.276Z,11.10
2022-10-18T05:22:50.249Z,13.50
2022-10-18T05:23:50.237Z,11.40
2022-10-18T05:24:50.229Z,11.70
2022-10-18T05:25:50.210Z,18.00
2022-10-18T05:26:50.209Z,14.80
2022-10-18T05:27:50.216Z,12.30
2022-10-18T05:28:50.229Z,10.00
2022-10-18T05:29:50.225Z,13.50
2022-10-18T05:30:50.161Z,10.60
2022-10-18T05:31:50.152Z,10.30
2022-10-18T05:32:50.176Z,9.20
2022-10-18T05:33:50.128Z,10.00
2022-10-18T05:34:50.119Z,10.70
2022-10-18T05:35:50.109Z,13.70
2022-10-18T05:36:50.091Z,11.80
2022-10-18T05:37:50.081Z,11.30
2022-10-18T05:38:50.101Z,11.20
2022-10-18T05:39:50.060Z,12.50
2022-10-18T05:40:50.049Z,11.10
2022-10-18T05:41:50.041Z,11.80
2022-10-18T05:42:50.051Z,11.80
2022-10-18T05:43:50.040Z,12.80
2022-10-18T05:44:50.053Z,11.00
2022-10-18T05:45:50.060Z,11.10
2022-10-18T05:46:49.990Z,11.00
2022-10-18T05:47:49.984Z,12.10
2022-10-18T05:48:49.983Z,15.10
2022-10-18T05:49:50.013Z,11.10
2022-10-18T05:50:49.941Z,13.10
2022-10-18T05:51:49.934Z,11.20
2022-10-18T05:52:49.925Z,14.10
2022-10-18T05:53:49.931Z,10.20
2022-10-18T05:54:49.903Z,12.30
2022-10-18T05:55:49.892Z,11.90
2022-10-18T05:56:49.884Z,11.50
2022-10-18T05:57:49.863Z,10.40
2022-10-18T05:58:49.873Z,8.80
2022-10-18T05:59:49.905Z,10.30
2022-10-18T06:00:49.843Z,13.30
2022-10-18T06:01:49.823Z,11.10
2022-10-18T06:02:49.851Z,13.00
2022-10-18T06:03:49.816Z,10.00
2022-10-18T06:04:49.785Z,10.40
2022-10-18T06:05:49.775Z,12.00
2022-10-18T06:06:49.766Z,11.80
2022-10-18T06:07:49.754Z,11.60
2022-10-18T06:08:49.769Z,11.30
2022-10-18T06:09:49.730Z,10.90
2022-10-18T06:10:49.725Z,15.30
2022-10-18T06:11:49.705Z,13.30
2022-10-18T06:12:49.704Z,11.60
2022-10-18T06:13:49.707Z,15.40
2022-10-18T06:14:49.685Z,11.10
2022-10-18T06:15:49.670Z,11.90
2022-10-18T06:16:49.656Z,12.30
2022-10-18T06:17:49.640Z,10.20
2022-10-18T06:18:49.637Z,11.30
2022-10-18T06:19:49.677Z,14.60
2022-10-18T06:20:49.608Z,15.90
2022-10-18T06:21:49.601Z,10.50
2022-10-18T06:22:49.598Z,14.40
2022-10-18T06:23:49.598Z,10.40
2022-10-18T06:24:51.788Z,12.40
2022-10-18T06:25:50.551Z,11.30
2022-10-18T06:26:49.549Z,12.80
2022-10-18T06:27:49.529Z,14.20
2022-10-18T06:28:49.593Z,11.30
2022-10-18T06:29:49.540Z,18.50
2022-10-18T06:30:49.499Z,15.90
2022-10-18T06:31:49.498Z,12.10
2022-10-18T06:32:49.478Z,13.30
2022-10-18T06:33:49.481Z,13.00
2022-10-18T06:34:49.479Z,16.10
2022-10-18T06:35:49.448Z,16.10
2022-10-18T06:36:49.439Z,13.10
2022-10-18T06:37:49.428Z,13.20
2022-10-18T06:38:49.411Z,14.80
2022-10-18T06:39:49.430Z,15.20
2022-10-18T06:40:49.400Z,19.00
2022-10-18T06:41:49.382Z,17.90
2022-10-18T06:42:59.939Z,17.30
2022-10-18T06:43:50.392Z,16.50
2022-10-18T06:44:49.352Z,14.20
2022-10-18T06:45:49.358Z,17.80
2022-10-18T06:46:49.329Z,14.30
2022-10-18T06:47:49.321Z,17.70
2022-10-18T06:48:49.312Z,16.50
2022-10-18T06:49:49.373Z,18.50
2022-10-18T06:50:49.282Z,15.60
2022-10-18T06:51:49.304Z,17.20
2022-10-18T06:52:49.271Z,16.30
2022-10-18T06:53:59.737Z,17.40
2022-10-18T06:54:50.241Z,16.30
2022-10-18T06:55:49.234Z,18.20
2022-10-18T06:56:49.246Z,18.40
2022-10-18T06:57:49.204Z,19.40
2022-10-18T06:58:49.259Z,16.60
2022-10-18T06:59:49.183Z,18.60
2022-10-18T07:00:49.174Z,20.30
2022-10-18T07:01:49.211Z,21.90
2022-10-18T07:02:49.183Z,16.40
2022-10-18T07:03:49.143Z,16.20
2022-10-18T07:04:49.132Z,21.50
2022-10-18T07:05:49.114Z,18.40
2022-10-18T07:06:49.107Z,20.30
2022-10-18T07:07:52.893Z,22.50
2022-10-18T07:08:50.105Z,24.70
2022-10-18T07:09:49.076Z,25.90
2022-10-18T07:10:49.065Z,27.80
2022-10-18T07:11:49.048Z,25.50
2022-10-18T07:12:49.046Z,26.20
2022-10-18T07:13:49.047Z,26.40
2022-10-18T07:14:49.024Z,25.50
2022-10-18T07:15:49.010Z,25.20
2022-10-18T07:16:48.997Z,26.00
2022-10-18T07:17:48.987Z,26.90
2022-10-18T07:18:48.998Z,21.60
2022-10-18T07:19:48.964Z,23.40
2022-10-18T07:20:48.957Z,35.10
2022-10-18T07:21:48.947Z,25.50
2022-10-18T07:22:48.937Z,21.80
2022-10-18T07:23:48.948Z,25.90
2022-10-18T07:24:48.917Z,26.80
2022-10-18T07:25:48.899Z,27.60
2022-10-18T07:26:48.892Z,28.80
2022-10-18T07:27:48.870Z,34.40
2022-10-18T07:28:48.908Z,33.60
2022-10-18T07:29:48.872Z,33.50
2022-10-18T07:30:48.840Z,29.30
2022-10-18T07:31:48.829Z,26.50
2022-10-18T07:32:48.826Z,39.30
2022-10-18T07:33:48.809Z,31.10
2022-10-18T07:34:48.820Z,29.90
2022-10-18T07:35:48.792Z,27.50
2022-10-18T07:36:48.782Z,29.70
2022-10-18T07:37:48.783Z,28.30
2022-10-18T07:38:48.761Z,29.00
2022-10-18T07:39:48.770Z,31.20
2022-10-18T07:40:48.742Z,32.60
2022-10-18T07:41:48.730Z,27.20
2022-10-18T07:42:48.710Z,29.80
2022-10-18T07:43:48.705Z,31.70
2022-10-18T07:44:48.691Z,34.20
2022-10-18T07:45:48.704Z,32.40
2022-10-18T07:46:48.673Z,34.10
2022-10-18T07:47:48.651Z,26.70
2022-10-18T07:48:48.647Z,34.50
2022-10-18T07:49:48.684Z,31.30
2022-10-18T07:50:48.661Z,31.60
2022-10-18T07:51:48.615Z,31.10
2022-10-18T07:52:48.603Z,29.40
2022-10-18T07:53:48.593Z,32.60
2022-10-18T07:55:48.574Z,28.00
2022-10-18T07:56:48.583Z,32.80
2022-10-18T07:57:48.545Z,27.00
2022-10-18T07:58:48.536Z,27.60
2022-10-18T07:59:48.523Z,30.10
2022-10-18T08:00:48.559Z,31.70
2022-10-18T08:01:48.568Z,28.90
2022-10-18T08:02:48.495Z,30.70
2022-10-18T08:03:48.485Z,35.70
2022-10-18T08:04:48.634Z,35.10
2022-10-18T08:05:48.476Z,33.80
2022-10-18T08:06:48.497Z,35.90
2022-10-18T08:07:48.435Z,31.20
2022-10-18T08:08:48.436Z,31.80
2022-10-18T08:09:48.416Z,30.40
2022-10-18T08:10:48.405Z,28.80
2022-10-18T08:11:48.407Z,28.70
2022-10-18T08:12:48.388Z,31.60
2022-10-18T08:13:48.386Z,30.90
2022-10-18T08:14:48.359Z,36.00
2022-10-18T08:15:48.348Z,33.60
2022-10-18T08:16:48.425Z,25.70
2022-10-18T08:17:48.330Z,28.20
2022-10-18T08:18:48.317Z,32.50
2022-10-18T08:19:58.496Z,31.30
2022-10-18T08:20:49.290Z,28.20
2022-10-18T08:21:48.285Z,32.50
2022-10-18T08:22:48.291Z,26.70
2022-10-18T08:23:48.259Z,29.50
2022-10-18T08:24:48.249Z,28.60
2022-10-18T08:25:48.240Z,27.90
2022-10-18T08:26:48.230Z,25.30
2022-10-18T08:27:48.241Z,33.10
2022-10-18T08:28:54.093Z,27.10
2022-10-18T08:29:49.227Z,30.10
2022-10-18T08:30:48.181Z,26.60
2022-10-18T08:31:48.196Z,29.00
2022-10-18T08:32:48.161Z,26.30
2022-10-18T08:33:48.187Z,27.40
2022-10-18T08:34:48.151Z,28.80
2022-10-18T08:35:48.133Z,29.90
2022-10-18T08:36:48.126Z,31.90
2022-10-18T08:37:48.133Z,22.60
2022-10-18T08:38:48.101Z,25.90
2022-10-18T08:39:48.083Z,33.80
2022-10-18T08:40:48.079Z,26.10
2022-10-18T08:41:48.121Z,26.40
2022-10-18T08:42:48.053Z,26.00
2022-10-18T08:43:48.064Z,32.50
2022-10-18T08:44:48.062Z,24.80
2022-10-18T08:45:48.022Z,21.30
2022-10-18T08:46:48.012Z,32.40
2022-10-18T08:47:48.001Z,24.90
2022-10-18T08:48:47.990Z,28.20
2022-10-18T08:49:47.994Z,24.70
2022-10-18T08:50:47.973Z,22.80
2022-10-18T08:51:47.956Z,26.90
2022-10-18T08:52:47.951Z,26.80
2022-10-18T08:53:47.944Z,30.70
2022-10-18T08:54:47.944Z,29.10
2022-10-18T08:55:47.913Z,28.50
2022-10-18T08:56:47.903Z,22.90
2022-10-18T08:57:47.886Z,22.10
2022-10-18T08:58:47.883Z,20.90
2022-10-18T08:59:47.924Z,22.60
2022-10-18T09:00:47.856Z,22.90
2022-10-18T09:02:47.844Z,27.70
2022-10-18T09:03:47.914Z,23.80
2022-10-18T09:04:47.837Z,26.90
2022-10-18T09:05:47.806Z,23.80
2022-10-18T09:06:47.788Z,24.30
2022-10-18T09:07:47.778Z,21.70
2022-10-18T09:08:47.798Z,21.80
2022-10-18T09:09:47.758Z,22.30
2022-10-18T09:10:47.769Z,23.90
2022-10-18T09:11:47.738Z,24.50
2022-10-18T09:12:47.728Z,27.10
2022-10-18T09:13:47.739Z,22.30
2022-10-18T09:14:47.714Z,20.40
2022-10-18T09:15:47.698Z,23.50
2022-10-18T09:16:47.682Z,24.00
2022-10-18T09:17:47.671Z,23.10
2022-10-18T09:18:47.658Z,20.60
2022-10-18T09:19:47.706Z,22.20
2022-10-18T09:20:47.647Z,23.30
2022-10-18T09:21:47.630Z,25.20
2022-10-18T09:22:47.620Z,24.50
2022-10-18T09:23:47.609Z,32.10
2022-10-18T09:24:47.610Z,33.10
2022-10-18T09:25:47.589Z,27.80
2022-10-18T09:26:47.571Z,20.90
2022-10-18T09:27:47.562Z,24.30
2022-10-18T09:28:47.631Z,22.90
2022-10-18T09:29:47.563Z,26.60
2022-10-18T09:30:47.530Z,25.10
2022-10-18T09:31:47.521Z,21.90
2022-10-18T09:32:47.516Z,20.00
2022-10-18T09:33:47.502Z,25.50
2022-10-18T09:34:47.502Z,20.80
2022-10-18T09:35:47.512Z,19.00
2022-10-18T09:36:47.464Z,21.60
2022-10-18T09:37:47.565Z,22.80
2022-10-18T09:38:47.435Z,22.20
2022-10-18T09:39:47.456Z,20.90
2022-10-18T09:40:47.424Z,28.10
2022-10-18T09:41:47.413Z,24.40
2022-10-18T09:42:47.400Z,24.10
2022-10-18T09:43:47.394Z,18.10
2022-10-18T09:44:47.377Z,23.40
2022-10-18T09:45:47.395Z,17.80
2022-10-18T09:46:47.356Z,24.40
2022-10-18T09:47:47.375Z,22.00
2022-10-18T09:48:47.326Z,26.40
2022-10-18T09:49:47.347Z,24.90
2022-10-18T09:50:47.367Z,23.00
2022-10-18T09:51:47.307Z,24.00
2022-10-18T09:52:47.286Z,25.60
2022-10-18T09:53:47.298Z,21.60
2022-10-18T09:54:47.266Z,22.60
2022-10-18T09:55:47.286Z,18.50
2022-10-18T09:56:47.277Z,21.00
2022-10-18T09:57:47.264Z,18.90
2022-10-18T09:58:47.218Z,21.00
2022-10-18T09:59:47.244Z,19.30
2022-10-18T10:00:47.198Z,21.20
2022-10-18T10:01:47.188Z,19.00
2022-10-18T10:02:47.211Z,20.30
2022-10-18T10:03:47.185Z,19.60
2022-10-18T10:04:47.162Z,19.00
2022-10-18T10:05:47.170Z,16.80
2022-10-18T10:06:47.133Z,17.60
2022-10-18T10:07:47.120Z,14.50
2022-10-18T10:08:47.140Z,14.90
2022-10-18T10:09:47.103Z,21.10
2022-10-18T10:10:47.111Z,17.00
2022-10-18T10:11:47.081Z,15.30
2022-10-18T10:12:47.081Z,14.80
2022-10-18T10:13:47.066Z,16.80
2022-10-18T10:14:47.050Z,14.80
2022-10-18T10:15:47.069Z,16.70
2022-10-18T10:16:47.031Z,18.50
2022-10-18T10:17:47.022Z,13.40
2022-10-18T10:18:47.023Z,13.80
2022-10-18T10:19:46.993Z,19.90
2022-10-18T10:20:46.980Z,13.90
2022-10-18T10:21:47.001Z,14.90
2022-10-18T10:22:46.962Z,16.00
2022-10-18T10:23:46.953Z,12.60
2022-10-18T10:24:46.945Z,16.40
2022-10-18T10:25:46.932Z,12.50
2022-10-18T10:26:46.923Z,17.50
2022-10-18T10:27:46.934Z,14.00
2022-10-18T10:28:46.955Z,13.10
2022-10-18T10:29:46.954Z,13.90
2022-10-18T10:30:46.876Z,16.60
2022-10-18T10:31:46.884Z,17.10
2022-10-18T10:32:46.847Z,16.10
2022-10-18T10:33:46.847Z,13.80
2022-10-18T10:34:46.833Z,19.10
2022-10-18T10:35:53.600Z,14.50
2022-10-18T10:36:47.826Z,19.70
2022-10-18T10:37:46.827Z,14.40
2022-10-18T10:38:46.787Z,18.00
2022-10-18T10:39:55.444Z,17.60
2022-10-18T10:40:47.758Z,14.90
2022-10-18T10:41:46.777Z,18.00
2022-10-18T10:42:46.739Z,14.50
2022-10-18T10:43:46.757Z,14.80
2022-10-18T10:44:46.720Z,14.90
2022-10-18T10:45:46.715Z,10.80
2022-10-18T10:46:46.706Z,13.60
2022-10-18T10:47:46.688Z,13.60
2022-10-18T10:48:46.704Z,15.60
2022-10-18T10:49:46.660Z,14.40
2022-10-18T10:50:46.660Z,15.10
2022-10-18T10:51:53.673Z,16.00
2022-10-18T10:52:47.632Z,11.50
2022-10-18T10:53:46.651Z,16.50
2022-10-18T10:54:51.275Z,15.60
2022-10-18T10:55:47.601Z,11.20
2022-10-18T10:56:46.591Z,15.60
2022-10-18T10:57:46.581Z,13.80
2022-10-18T10:58:46.563Z,15.10
2022-10-18T10:59:46.583Z,14.90
2022-10-18T11:00:54.364Z,12.10
2022-10-18T11:01:46.544Z,20.10
2022-10-18T11:02:59.197Z,13.30
2022-10-18T11:03:47.557Z,15.30
2022-10-18T11:04:46.506Z,12.90
2022-10-18T11:05:46.526Z,13.30
2022-10-18T11:06:46.485Z,16.70
2022-10-18T11:07:46.476Z,15.40
2022-10-18T11:09:46.456Z,11.50
2022-10-18T11:10:46.469Z,10.10
2022-10-18T11:11:46.428Z,14.40
2022-10-18T11:12:46.420Z,10.70
2022-10-18T11:13:49.986Z,11.40
2022-10-18T11:14:47.445Z,15.40
2022-10-18T11:15:46.628Z,10.50
2022-10-18T11:16:46.370Z,12.20
2022-10-18T11:17:46.426Z,12.10
2022-10-18T11:18:46.348Z,12.70
2022-10-18T11:19:46.339Z,9.80
2022-10-18T11:20:46.371Z,11.70
2022-10-18T11:21:46.350Z,14.70
2022-10-18T11:22:46.301Z,11.30
2022-10-18T11:23:46.333Z,9.10
2022-10-18T11:24:46.363Z,12.20
2022-10-18T11:25:46.368Z,8.60
2022-10-18T11:26:48.814Z,9.10
2022-10-18T11:27:47.262Z,12.00
2022-10-18T11:28:46.322Z,7.90
2022-10-18T11:29:46.284Z,16.00
2022-10-18T11:30:46.363Z,12.60
2022-10-18T11:31:46.301Z,9.30
2022-10-18T11:32:46.193Z,12.20
2022-10-18T11:34:07.666Z,8.90
2022-10-18T11:34:47.175Z,14.90
2022-10-18T11:35:46.169Z,9.80
2022-10-18T11:36:54.732Z,9.00
2022-10-18T11:37:47.180Z,8.80
2022-10-18T11:38:46.228Z,9.60
2022-10-18T11:39:46.176Z,10.80
2022-10-18T11:40:46.147Z,13.50
2022-10-18T11:41:46.153Z,8.10
2022-10-18T11:42:46.129Z,10.00
2022-10-18T11:44:01.619Z,8.80
2022-10-18T11:44:47.128Z,5.90
2022-10-18T11:45:46.077Z,7.80
2022-10-18T11:46:46.088Z,8.30
2022-10-18T11:47:46.938Z,9.00
2022-10-18T11:48:46.162Z,6.50
2022-10-18T11:49:51.391Z,8.30
2022-10-18T11:50:46.091Z,5.40
2022-10-18T11:52:03.548Z,12.90
2022-10-18T11:52:47.000Z,7.70
2022-10-18T11:53:50.957Z,8.60
2022-10-18T11:54:46.964Z,7.00
2022-10-18T11:55:46.123Z,8.90
2022-10-18T11:56:45.942Z,10.30
2022-10-18T11:57:46.143Z,8.60
2022-10-18T11:58:45.922Z,5.80
2022-10-18T11:59:45.911Z,6.80
2022-10-18T12:00:45.904Z,11.10
2022-10-18T12:01:45.885Z,12.80
2022-10-18T12:02:46.023Z,7.90
2022-10-18T12:03:45.895Z,6.10
2022-10-18T12:04:58.493Z,10.90
2022-10-18T12:05:47.695Z,12.90
2022-10-18T12:06:45.835Z,7.20
2022-10-18T12:07:45.847Z,7.50
2022-10-18T12:08:45.835Z,7.40
2022-10-18T12:09:45.898Z,9.50
2022-10-18T12:11:03.926Z,11.10
2022-10-18T12:11:47.440Z,7.50
2022-10-18T12:12:45.904Z,9.20
2022-10-18T12:13:45.988Z,9.10
2022-10-18T12:14:45.755Z,7.50
2022-10-18T12:15:45.752Z,6.20
2022-10-18T12:16:51.375Z,8.80
2022-10-18T12:17:50.076Z,7.60
2022-10-18T12:18:45.771Z,7.50
2022-10-18T12:19:45.699Z,6.50
2022-10-18T12:20:45.708Z,10.80
2022-10-18T12:21:45.680Z,9.40
2022-10-18T12:22:45.676Z,8.30
2022-10-18T12:23:45.685Z,4.90
2022-10-18T12:24:45.644Z,9.50
2022-10-18T12:25:45.633Z,8.70
2022-10-18T12:26:45.622Z,6.70
2022-10-18T12:27:45.646Z,9.90
2022-10-18T12:28:45.656Z,9.50
2022-10-18T12:29:48.042Z,5.70
2022-10-18T12:30:45.585Z,7.00
2022-10-18T12:31:45.581Z,8.40
2022-10-18T12:33:02.068Z,9.40
2022-10-18T12:33:46.576Z,4.80
2022-10-18T12:34:45.536Z,6.90
2022-10-18T12:35:45.535Z,7.80
2022-10-18T12:36:45.526Z,7.60
2022-10-18T12:37:45.535Z,9.80
2022-10-18T12:38:45.496Z,6.40
2022-10-18T12:40:05.615Z,10.50
2022-10-18T12:40:46.471Z,6.10
2022-10-18T12:41:45.469Z,4.10
2022-10-18T12:42:45.458Z,7.00
2022-10-18T12:43:45.469Z,5.20
2022-10-18T12:44:45.430Z,6.40
2022-10-18T12:45:45.430Z,10.80
2022-10-18T12:46:45.411Z,6.70
2022-10-18T12:47:45.406Z,8.60
2022-10-18T12:48:45.432Z,7.80
2022-10-18T12:49:45.380Z,4.20
2022-10-18T12:50:45.372Z,9.70
2022-10-18T12:51:45.371Z,3.90
2022-10-18T12:52:45.351Z,6.40
2022-10-18T12:53:45.343Z,6.40
2022-10-18T12:54:45.351Z,5.50
2022-10-18T12:55:45.333Z,5.90
2022-10-18T12:56:45.305Z,9.20
2022-10-18T12:57:45.300Z,5.60
2022-10-18T12:58:45.285Z,7.70
2022-10-18T12:59:45.284Z,5.10
2022-10-18T13:00:45.341Z,4.50
2022-10-18T13:01:45.295Z,7.80